createdAt,value
2022-11-29T00:01:48.697Z,14.80
2022-11-29T00:04:20.024Z,16.40
2022-11-29T00:06:51.361Z,18.83
2022-11-29T00:09:22.624Z,13.20
2022-11-29T00:12:13.983Z,12.57
2022-11-29T00:14:45.482Z,31.42
2022-11-29T00:17:16.987Z,40.45
2022-11-29T00:19:48.360Z,15.73
2022-11-29T00:22:20.721Z,24.33
2022-11-29T00:24:52.230Z,20.87
2022-11-29T00:29:55.032Z,14.85
2022-11-29T00:32:26.509Z,14.45
2022-11-29T00:34:59.646Z,15.10
2022-11-29T00:37:31.239Z,12.70
2022-11-29T00:40:02.801Z,26.58
2022-11-29T00:42:34.585Z,8.80
2022-11-29T00:45:06.178Z,12.30
2022-11-29T00:47:37.521Z,12.98
2022-11-29T00:50:09.737Z,9.63
2022-11-29T00:52:41.592Z,8.88
2022-11-29T00:55:13.037Z,7.47
2022-11-29T00:57:44.603Z,6.88
2022-11-29T01:00:16.589Z,9.82
2022-11-29T01:05:19.206Z,5.90
2022-11-29T01:07:50.721Z,6.57
2022-11-29T01:12:53.100Z,11.60
2022-11-29T01:15:24.761Z,5.88
2022-11-29T01:17:56.568Z,5.28
2022-11-29T01:20:28.223Z,6.50
2022-11-29T01:23:01.161Z,8.43
2022-11-29T01:28:04.988Z,4.32
2022-11-29T01:30:36.444Z,4.78
2022-11-29T01:33:08.619Z,4.85
2022-11-29T01:35:39.996Z,5.47
2022-11-29T01:38:11.275Z,5.68
2022-11-29T01:40:42.949Z,5.65
2022-11-29T01:43:20.842Z,4.75
2022-11-29T01:45:52.984Z,5.25
2022-11-29T01:48:30.734Z,5.38
2022-11-29T01:51:03.534Z,5.13
2022-11-29T01:53:35.634Z,8.05
2022-11-29T01:58:38.651Z,6.70
2022-11-29T02:01:10.258Z,8.45
2022-11-29T02:03:41.767Z,4.88
2022-11-29T02:06:13.351Z,5.10
2022-11-29T02:08:46.001Z,5.18
2022-11-29T02:11:44.464Z,6.85
2022-11-29T02:14:52.108Z,5.50
2022-11-29T02:17:35.421Z,4.72
2022-11-29T02:20:45.445Z,5.15
2022-11-29T02:23:31.933Z,5.28
2022-11-29T02:26:44.302Z,4.88
2022-11-29T02:34:50.664Z,5.40
2022-11-29T02:37:38.160Z,4.35
2022-11-29T02:40:37.497Z,7.05
2022-11-29T02:43:42.352Z,5.28
2022-11-29T02:46:16.650Z,4.88
2022-11-29T02:49:10.315Z,10.45
2022-11-29T02:51:58.874Z,6.47
2022-11-29T02:54:44.271Z,4.70
2022-11-29T02:57:42.306Z,6.85
2022-11-29T03:00:23.947Z,5.10
2022-11-29T03:03:13.931Z,8.45
2022-11-29T03:06:01.153Z,4.72
2022-11-29T03:08:45.688Z,4.40
2022-11-29T03:11:57.102Z,5.28
2022-11-29T03:14:50.685Z,4.88
2022-11-29T03:17:28.157Z,5.18
2022-11-29T03:20:35.992Z,5.15
2022-11-29T03:23:25.672Z,4.78
2022-11-29T03:26:06.341Z,4.82
2022-11-29T03:28:47.996Z,7.43
2022-11-29T03:31:49.916Z,6.93
2022-11-29T03:34:55.765Z,5.07
2022-11-29T03:37:52.262Z,5.95
2022-11-29T03:41:01.647Z,5.25
2022-11-29T03:43:44.820Z,4.93
2022-11-29T03:46:53.087Z,5.32
2022-11-29T03:49:40.910Z,5.13
2022-11-29T03:52:18.401Z,6.03
2022-11-29T03:54:59.308Z,5.22
2022-11-29T03:58:03.760Z,8.43
2022-11-29T04:00:50.014Z,5.47
2022-11-29T04:03:50.336Z,5.22
2022-11-29T04:06:39.873Z,6.50
2022-11-29T04:09:23.290Z,5.97
2022-11-29T04:12:24.523Z,5.93
2022-11-29T04:15:49.321Z,7.45
2022-11-29T04:18:58.228Z,5.38
2022-11-29T04:21:47.801Z,5.40
2022-11-29T04:25:03.626Z,5.15
2022-11-29T04:28:12.805Z,5.65
2022-11-29T04:31:00.699Z,9.00
2022-11-29T04:33:53.929Z,7.97
2022-11-29T04:36:52.847Z,5.53
2022-11-29T04:39:59.269Z,5.68
2022-11-29T04:42:48.896Z,8.57
2022-11-29T04:45:47.003Z,5.85
2022-11-29T04:48:54.426Z,6.03
2022-11-29T04:51:45.472Z,5.32
2022-11-29T04:54:25.733Z,4.80
2022-11-29T04:57:20.572Z,5.97
2022-11-29T05:00:33.557Z,5.45
2022-11-29T05:03:17.326Z,4.97
2022-11-29T05:05:53.565Z,5.68
2022-11-29T05:09:12.965Z,8.57
2022-11-29T05:11:55.256Z,5.38
2022-11-29T05:14:57.558Z,7.07
2022-11-29T05:17:33.056Z,4.95
2022-11-29T05:20:25.127Z,5.78
2022-11-29T05:23:14.916Z,5.35
2022-11-29T05:26:07.138Z,7.85
2022-11-29T05:29:09.247Z,5.35
2022-11-29T05:32:06.530Z,6.00
2022-11-29T05:34:40.769Z,5.70
2022-11-29T05:37:30.320Z,4.78
2022-11-29T05:40:10.727Z,4.72
2022-11-29T05:43:05.972Z,4.60
2022-11-29T05:45:58.611Z,4.95
2022-11-29T05:48:46.676Z,4.72
2022-11-29T05:51:31.842Z,4.93
2022-11-29T05:54:22.345Z,7.28
2022-11-29T05:56:56.468Z,6.30
2022-11-29T05:59:31.646Z,4.57
2022-11-29T06:02:12.659Z,6.72
2022-11-29T06:05:02.692Z,5.07
2022-11-29T06:07:36.723Z,4.90
2022-11-29T06:10:19.237Z,4.78
2022-11-29T06:13:26.457Z,6.07
2022-11-29T06:16:25.350Z,4.60
2022-11-29T06:19:21.004Z,4.15
2022-11-29T06:21:58.094Z,4.40
2022-11-29T06:25:02.911Z,5.45
2022-11-29T06:28:18.746Z,4.40
2022-11-29T06:31:03.641Z,5.25
2022-11-29T06:33:40.904Z,4.63
2022-11-29T06:36:17.311Z,4.50
2022-11-29T06:38:49.117Z,5.65
2022-11-29T06:43:55.756Z,4.93
2022-11-29T06:46:38.363Z,4.20
2022-11-29T06:49:34.449Z,5.18
2022-11-29T06:52:20.906Z,7.28
2022-11-29T06:55:06.296Z,9.50
2022-11-29T06:57:55.546Z,4.82
2022-11-29T07:00:31.554Z,4.28
2022-11-29T07:03:03.096Z,4.45
2022-11-29T07:05:36.985Z,5.82
2022-11-29T07:08:16.924Z,4.20
2022-11-29T07:10:51.483Z,4.28
2022-11-29T07:13:23.854Z,4.60
2022-11-29T07:16:04.981Z,3.97
2022-11-29T07:18:54.657Z,3.95
2022-11-29T07:21:55.783Z,5.32
2022-11-29T07:24:57.551Z,5.70
2022-11-29T07:27:29.445Z,4.88
2022-11-29T07:30:06.773Z,4.75
2022-11-29T07:33:00.053Z,5.20
2022-11-29T07:35:51.362Z,7.35
2022-11-29T07:38:48.159Z,5.88
2022-11-29T07:41:39.813Z,5.15
2022-11-29T07:44:28.669Z,5.18
2022-11-29T07:47:00.171Z,9.32
2022-11-29T07:49:31.787Z,11.93
2022-11-29T07:52:03.629Z,7.35
2022-11-29T07:54:35.107Z,11.77
2022-11-29T07:57:06.418Z,10.82
2022-11-29T07:59:37.769Z,6.15
2022-11-29T08:02:11.793Z,5.05
2022-11-29T08:04:48.239Z,5.32
2022-11-29T08:07:19.932Z,5.28
2022-11-29T08:09:51.474Z,6.32
2022-11-29T08:12:23.747Z,5.40
2022-11-29T08:14:55.242Z,6.35
2022-11-29T08:17:27.444Z,11.73
2022-11-29T08:22:35.371Z,8.70
2022-11-29T08:25:08.676Z,8.05
2022-11-29T08:27:41.079Z,11.70
2022-11-29T08:30:12.633Z,8.50
2022-11-29T08:32:48.452Z,4.47
2022-11-29T08:35:25.192Z,6.53
2022-11-29T08:37:58.261Z,4.85
2022-11-29T08:40:29.749Z,14.00
2022-11-29T08:43:01.532Z,5.93
2022-11-29T08:45:32.961Z,6.82
2022-11-29T08:48:07.761Z,4.78
2022-11-29T08:50:39.793Z,5.18
2022-11-29T08:53:29.446Z,4.30
2022-11-29T08:56:12.021Z,6.18
2022-11-29T08:58:53.573Z,5.70
2022-11-29T09:01:24.969Z,11.63
2022-11-29T09:04:06.541Z,6.57
2022-11-29T09:06:46.068Z,10.73
2022-11-29T09:09:18.707Z,12.82
2022-11-29T09:11:50.151Z,9.13
2022-11-29T09:14:23.645Z,7.00
2022-11-29T09:16:55.322Z,6.47
2022-11-29T09:19:26.940Z,11.90
2022-11-29T09:21:58.683Z,16.95
2022-11-29T09:24:30.687Z,12.50
2022-11-29T09:27:03.068Z,9.20
2022-11-29T09:29:34.771Z,10.05
2022-11-29T09:32:06.663Z,13.55
2022-11-29T09:34:38.684Z,10.93
2022-11-29T09:37:10.257Z,14.05
2022-11-29T09:39:42.992Z,11.05
2022-11-29T09:42:43.066Z,9.18
2022-11-29T09:45:22.596Z,12.15
2022-11-29T09:48:30.425Z,9.13
2022-11-29T09:51:10.780Z,14.73
2022-11-29T09:54:21.704Z,7.00
2022-11-29T09:56:55.995Z,12.63
2022-11-29T09:59:37.923Z,7.55
2022-11-29T10:04:48.456Z,12.30
2022-11-29T10:07:55.903Z,9.32
2022-11-29T10:10:47.165Z,11.68
2022-11-29T10:13:37.844Z,20.73
2022-11-29T10:16:24.561Z,16.42
2022-11-29T10:19:09.444Z,8.98
2022-11-29T10:21:47.278Z,11.32
2022-11-29T10:24:23.687Z,13.10
2022-11-29T10:26:55.432Z,17.73
2022-11-29T10:29:26.956Z,8.40
2022-11-29T10:34:34.477Z,17.27
2022-11-29T10:37:06.651Z,45.65
2022-11-29T10:39:51.593Z,41.83
2022-11-29T10:42:45.240Z,32.50
2022-11-29T10:45:35.990Z,25.20
2022-11-29T10:48:13.450Z,23.20
2022-11-29T10:50:47.012Z,16.55
2022-11-29T10:53:21.979Z,19.65
2022-11-29T10:56:03.974Z,14.80
2022-11-29T10:58:35.574Z,21.30
2022-11-29T11:01:10.679Z,8.35
2022-11-29T11:03:53.142Z,14.27
2022-11-29T11:06:44.680Z,18.73
2022-11-29T11:09:31.527Z,8.40
2022-11-29T11:12:10.228Z,7.68
2022-11-29T11:14:42.541Z,17.05
2022-11-29T11:17:21.528Z,16.38
2022-11-29T11:20:21.773Z,14.63
2022-11-29T11:23:27.228Z,11.80
2022-11-29T11:26:05.451Z,11.85
2022-11-29T11:29:04.167Z,9.50
2022-11-29T11:31:39.863Z,8.18
2022-11-29T11:34:27.892Z,14.25
2022-11-29T11:37:22.235Z,8.93
2022-11-29T11:39:57.508Z,13.60
2022-11-29T11:42:41.073Z,10.60
2022-11-29T11:45:12.454Z,8.77
2022-11-29T11:47:54.446Z,10.50
2022-11-29T11:53:28.134Z,11.75
2022-11-29T11:56:12.389Z,7.57
2022-11-29T11:58:53.981Z,12.90
2022-11-29T12:01:48.231Z,15.20
2022-11-29T12:04:40.142Z,8.93
2022-11-29T12:10:35.344Z,7.93
2022-11-29T12:13:12.124Z,15.07
2022-11-29T12:15:50.877Z,14.98
2022-11-29T12:18:49.825Z,6.95
2022-11-29T12:21:29.725Z,8.15
2022-11-29T12:24:16.245Z,12.82
2022-11-29T12:26:58.838Z,8.32
2022-11-29T12:29:34.801Z,6.03
2022-11-29T12:32:33.818Z,20.65
2022-11-29T12:35:39.794Z,9.73
2022-11-29T12:38:35.271Z,6.35
2022-11-29T12:41:27.682Z,5.15
2022-11-29T12:44:19.721Z,11.82
2022-11-29T12:50:06.593Z,10.23
2022-11-29T12:53:22.654Z,4.72
2022-11-29T12:56:38.462Z,10.30
2022-11-29T12:59:25.777Z,6.15
2022-11-29T13:02:05.180Z,9.82
2022-11-29T13:04:40.647Z,9.18
2022-11-29T13:07:45.319Z,4.45
2022-11-29T13:10:25.879Z,4.55
2022-11-29T13:13:20.225Z,7.45
2022-11-29T13:15:55.142Z,54.45
2022-11-29T13:18:38.212Z,61.10
2022-11-29T13:21:36.395Z,41.33
2022-11-29T13:24:42.680Z,42.83
2022-11-29T13:27:28.520Z,28.65
2022-11-29T13:30:02.785Z,49.03
2022-11-29T13:32:42.180Z,18.90
2022-11-29T13:35:37.692Z,24.90
2022-11-29T13:38:39.350Z,28.33
2022-11-29T13:41:41.245Z,23.23
2022-11-29T13:44:28.781Z,10.15
2022-11-29T13:47:13.390Z,8.50
2022-11-29T13:50:04.128Z,11.55
2022-11-29T13:52:49.679Z,14.80
2022-11-29T13:55:31.234Z,10.52
2022-11-29T14:00:48.865Z,7.88
2022-11-29T14:03:27.733Z,4.55
2022-11-29T14:06:05.552Z,3.72
2022-11-29T14:09:20.661Z,3.75
2022-11-29T14:12:03.152Z,5.50
2022-11-29T14:14:51.211Z,8.15
2022-11-29T14:17:53.627Z,13.15
2022-11-29T14:20:30.667Z,19.83
2022-11-29T14:23:14.550Z,6.20
2022-11-29T14:26:10.850Z,10.43
2022-11-29T14:28:47.013Z,9.10
2022-11-29T14:31:52.661Z,6.90
2022-11-29T14:34:36.038Z,9.85
2022-11-29T14:37:25.992Z,5.03
2022-11-29T14:40:04.307Z,10.20
2022-11-29T14:42:37.479Z,12.38
2022-11-29T14:45:32.004Z,3.92
2022-11-29T14:48:05.990Z,3.08
2022-11-29T14:50:42.146Z,2.75
2022-11-29T14:53:37.637Z,4.93
2022-11-29T14:56:35.117Z,2.55
2022-11-29T14:59:45.009Z,5.22
2022-11-29T15:02:53.482Z,3.90
2022-11-29T15:05:48.575Z,3.83
2022-11-29T15:08:30.574Z,6.18
2022-11-29T15:11:24.706Z,3.10
2022-11-29T15:14:48.454Z,2.28
2022-11-29T15:17:36.092Z,2.10
2022-11-29T15:20:27.975Z,4.20
2022-11-29T15:23:04.559Z,4.47
2022-11-29T15:25:38.692Z,2.63
2022-11-29T15:28:23.685Z,1.80
2022-11-29T15:31:11.477Z,1.77
2022-11-29T15:33:46.351Z,2.25
2022-11-29T15:36:24.838Z,1.67
2022-11-29T15:39:01.284Z,2.72
2022-11-29T15:41:37.536Z,3.63
2022-11-29T15:44:22.254Z,2.03
2022-11-29T15:46:56.077Z,2.33
2022-11-29T15:49:32.658Z,2.55
2022-11-29T15:52:20.079Z,1.92
2022-11-29T15:54:59.340Z,4.30
2022-11-29T15:57:35.345Z,1.77
2022-11-29T16:00:30.452Z,7.60
2022-11-29T16:03:06.189Z,5.25
2022-11-29T16:05:41.736Z,2.55
2022-11-29T16:08:21.735Z,12.52
2022-11-29T16:10:55.431Z,5.70
2022-11-29T16:13:39.145Z,2.15
2022-11-29T16:16:24.982Z,2.67
2022-11-29T16:19:10.275Z,2.35
2022-11-29T16:21:46.633Z,2.10
2022-11-29T16:24:25.808Z,4.90
2022-11-29T16:26:59.297Z,3.00
2022-11-29T16:29:39.724Z,2.80
2022-11-29T16:32:27.622Z,2.05
2022-11-29T16:35:15.460Z,4.10
2022-11-29T16:37:49.405Z,1.83
2022-11-29T16:40:29.881Z,5.35
2022-11-29T16:43:08.519Z,6.95
2022-11-29T16:45:43.763Z,2.35
2022-11-29T16:48:28.793Z,2.00
2022-11-29T16:51:16.639Z,1.80
2022-11-29T16:53:50.478Z,2.42
2022-11-29T16:56:30.412Z,2.60
2022-11-29T16:59:24.777Z,2.10
2022-11-29T17:02:00.286Z,1.58
2022-11-29T17:04:33.319Z,2.47
2022-11-29T17:07:14.675Z,2.13
2022-11-29T17:09:48.179Z,2.35
2022-11-29T17:12:21.495Z,2.05
2022-11-29T17:14:54.415Z,3.53
2022-11-29T17:17:27.730Z,2.50
2022-11-29T17:20:00.639Z,1.70
2022-11-29T17:22:33.552Z,2.10
2022-11-29T17:25:06.639Z,1.92
2022-11-29T17:27:40.111Z,2.03
2022-11-29T17:30:13.526Z,1.75
2022-11-29T17:32:47.142Z,2.92
2022-11-29T17:35:20.481Z,2.08
2022-11-29T17:37:53.406Z,5.68
2022-11-29T17:40:27.364Z,2.05
2022-11-29T17:43:00.232Z,4.28
2022-11-29T17:45:33.418Z,1.95
2022-11-29T17:48:06.851Z,2.45
2022-11-29T17:50:45.601Z,3.05
2022-11-29T17:53:18.850Z,4.13
2022-11-29T17:55:51.713Z,2.40
2022-11-29T17:58:24.823Z,2.10
2022-11-29T18:01:04.865Z,2.13
2022-11-29T18:03:42.273Z,1.83
2022-11-29T18:06:20.244Z,2.33
2022-11-29T18:08:56.452Z,2.38
2022-11-29T18:11:42.932Z,2.25
2022-11-29T18:14:25.762Z,3.90
2022-11-29T18:16:58.904Z,4.05
2022-11-29T18:19:33.509Z,2.50
2022-11-29T18:22:06.909Z,1.85
2022-11-29T18:24:39.772Z,3.58
2022-11-29T18:27:12.885Z,2.13
2022-11-29T18:29:45.968Z,2.00
2022-11-29T18:32:19.018Z,1.98
2022-11-29T18:34:52.278Z,1.67
2022-11-29T18:37:54.428Z,2.65
2022-11-29T18:40:19.116Z,2.38
2022-11-29T18:42:53.118Z,5.07
2022-11-29T18:45:26.013Z,2.83
2022-11-29T18:47:59.071Z,2.65
2022-11-29T18:50:33.147Z,5.00
2022-11-29T18:53:06.222Z,2.33
2022-11-29T18:55:39.179Z,2.47
2022-11-29T18:58:12.176Z,3.97
2022-11-29T19:00:46.447Z,2.78
2022-11-29T19:03:19.407Z,2.85
2022-11-29T19:05:56.475Z,1.80
2022-11-29T19:08:29.345Z,2.20
2022-11-29T19:11:06.229Z,3.08
2022-11-29T19:13:39.516Z,4.60
2022-11-29T19:16:17.756Z,3.97
2022-11-29T19:18:54.777Z,5.55
2022-11-29T19:21:29.796Z,3.40
2022-11-29T19:24:05.479Z,3.15
2022-11-29T19:26:39.106Z,2.30
2022-11-29T19:29:12.009Z,1.98
2022-11-29T19:31:45.073Z,2.08
2022-11-29T19:34:18.172Z,2.30
2022-11-29T19:36:51.071Z,2.67
2022-11-29T19:39:24.189Z,3.97
2022-11-29T19:41:57.126Z,3.13
2022-11-29T19:44:31.404Z,2.03
2022-11-29T19:47:06.487Z,2.17
2022-11-29T19:49:38.432Z,2.42
2022-11-29T19:52:09.718Z,2.15
2022-11-29T19:54:41.904Z,2.60
2022-11-29T19:57:13.335Z,2.33
2022-11-29T19:59:45.227Z,7.05
2022-11-29T20:02:17.569Z,5.00
2022-11-29T20:04:51.128Z,5.28
2022-11-29T20:07:22.485Z,4.97
2022-11-29T20:09:53.794Z,2.30
2022-11-29T20:12:25.089Z,2.63
2022-11-29T20:14:56.412Z,2.93
2022-11-29T20:17:27.848Z,4.47
2022-11-29T20:19:59.186Z,5.97
2022-11-29T20:22:30.631Z,2.55
2022-11-29T20:25:02.348Z,2.58
2022-11-29T20:27:33.734Z,4.43
2022-11-29T20:30:05.430Z,3.10
2022-11-29T20:32:37.717Z,3.75
2022-11-29T20:35:09.583Z,2.72
2022-11-29T20:38:10.164Z,2.90
2022-11-29T20:41:02.423Z,4.10
2022-11-29T20:43:56.594Z,2.70
2022-11-29T20:46:28.573Z,3.13
2022-11-29T20:49:06.024Z,2.80
2022-11-29T20:51:56.505Z,2.65
2022-11-29T20:54:27.986Z,2.85
2022-11-29T20:56:59.382Z,2.60
2022-11-29T20:59:31.961Z,5.40
2022-11-29T21:02:04.052Z,7.17
2022-11-29T21:04:35.430Z,2.97
2022-11-29T21:07:06.805Z,4.10
2022-11-29T21:09:38.051Z,3.03
2022-11-29T21:12:09.890Z,2.83
2022-11-29T21:14:41.498Z,5.78
2022-11-29T21:17:13.257Z,2.92
2022-11-29T21:19:45.130Z,3.47
2022-11-29T21:22:29.183Z,2.58
2022-11-29T21:25:31.795Z,2.65
2022-11-29T21:28:03.463Z,2.65
2022-11-29T21:30:35.423Z,5.68
2022-11-29T21:33:06.981Z,3.10
2022-11-29T21:35:42.224Z,3.08
2022-11-29T21:38:19.870Z,2.70
2022-11-29T21:40:51.172Z,3.00
2022-11-29T21:43:28.754Z,7.43
2022-11-29T21:46:14.380Z,3.08
2022-11-29T21:48:46.106Z,9.60
2022-11-29T21:51:17.493Z,2.97
2022-11-29T21:53:48.722Z,8.00
2022-11-29T21:56:20.121Z,3.23
2022-11-29T21:58:51.489Z,3.33
2022-11-29T22:01:23.506Z,3.95
2022-11-29T22:03:56.647Z,3.10
2022-11-29T22:06:29.743Z,3.58
2022-11-29T22:09:01.460Z,3.25
2022-11-29T22:11:33.295Z,3.00
2022-11-29T22:14:15.953Z,3.22
2022-11-29T22:16:52.673Z,3.25
2022-11-29T22:19:26.911Z,3.60
2022-11-29T22:22:01.394Z,3.88
2022-11-29T22:24:36.193Z,4.43
2022-11-29T22:27:07.514Z,4.45
2022-11-29T22:29:38.976Z,4.50
2022-11-29T22:32:10.272Z,7.10
2022-11-29T22:34:41.592Z,18.00
2022-11-29T22:37:14.266Z,4.38
2022-11-29T22:42:16.908Z,4.93
2022-11-29T22:44:48.573Z,7.45
2022-11-29T22:47:20.190Z,7.28
2022-11-29T22:49:51.677Z,5.05
2022-11-29T22:52:23.623Z,5.93
2022-11-29T22:54:57.617Z,5.77
2022-11-29T22:57:31.276Z,5.88
2022-11-29T23:00:02.587Z,6.50
2022-11-29T23:02:34.199Z,10.30
2022-11-29T23:05:06.032Z,8.25
2022-11-29T23:07:37.655Z,7.70
2022-11-29T23:10:09.784Z,6.32
2022-11-29T23:15:12.198Z,5.97
2022-11-29T23:17:43.720Z,5.78
2022-11-29T23:20:15.665Z,6.60
2022-11-29T23:22:47.102Z,7.28
2022-11-29T23:25:18.486Z,5.78
2022-11-29T23:27:52.125Z,7.73
2022-11-29T23:30:23.571Z,6.55
2022-11-29T23:32:55.132Z,19.10
2022-11-29T23:35:26.486Z,13.00
2022-11-29T23:37:57.813Z,14.85
2022-11-29T23:40:29.412Z,17.23
2022-11-29T23:43:02.125Z,25.88
2022-11-29T23:45:33.626Z,22.90
2022-11-29T23:48:05.220Z,41.47
2022-11-29T23:50:37.040Z,38.80
2022-11-29T23:53:08.741Z,36.78
2022-11-29T23:55:40.021Z,43.97
2022-11-29T23:58:12.718Z,45.87
